Time,TemperatureF,DewpointF,PressureIn,WindDirection,WindDirectionDegrees,WindSpeedMPH,WindSpeedGustMPH,Humidity,HourlyPrecipIn,Conditions,Clouds,dailyrainin,SoftwareType,DateUTC
2013-08-23 00:12:00,71.0,49.0,29.62,SW,219,5.0,11.0,46,0.00,,,0.04,,2013-08-23 06:12:00,
2013-08-23 00:21:00,75.0,46.0,29.61,SW,225,11.0,27.0,36,0.00,,,0.04,,2013-08-23 06:21:00,
2013-08-23 00:41:00,75.0,46.0,29.61,SW,217,12.0,19.0,36,0.00,,,0.04,,2013-08-23 06:41:00,
2013-08-23 00:52:00,75.0,46.0,29.60,SW,219,11.0,18.0,36,0.00,,,0.04,,2013-08-23 06:52:00,
2013-08-23 01:21:00,75.0,46.0,29.60,SW,226,11.0,17.0,36,0.00,,,0.04,,2013-08-23 07:21:00,
2013-08-23 02:22:00,68.0,49.0,29.59,East,91,5.0,7.0,50,0.00,,,0.04,,2013-08-23 08:22:00,
2013-08-23 02:42:00,66.0,49.0,29.59,SW,229,2.0,5.0,55,0.00,,,0.04,,2013-08-23 08:42:00,
2013-08-23 02:52:00,65.0,50.0,29.59,South,191,1.0,3.0,58,0.00,,,0.04,,2013-08-23 08:52:00,
2013-08-23 03:11:00,64.0,49.0,29.61,NNW,346,0.0,2.0,59,0.00,,,0.04,,2013-08-23 09:11:00,
2013-08-23 03:21:00,72.0,46.0,29.60,South,184,18.0,31.0,40,0.00,,,0.04,,2013-08-23 09:21:00,
2013-08-23 04:13:00,75.0,43.0,29.59,SW,232,25.0,42.0,32,0.00,,,0.04,,2013-08-23 10:13:00,
2013-08-23 04:22:00,75.0,41.0,29.59,WSW,255,26.0,39.0,30,0.00,,,0.04,,2013-08-23 10:22:00,
2013-08-23 04:42:00,75.0,42.0,29.58,WNW,286,18.0,31.0,31,0.00,,,0.04,,2013-08-23 10:42:00,
2013-08-23 05:11:00,76.0,41.0,29.59,SE,136,10.0,31.0,29,0.00,,,0.04,,2013-08-23 11:11:00,
2013-08-23 05:22:00,71.0,44.0,29.59,ENE,75,11.0,21.0,38,0.00,,,0.04,,2013-08-23 11:22:00,
2013-08-23 05:42:00,69.0,47.0,29.59,NNE,13,7.0,16.0,46,0.00,,,0.04,,2013-08-23 11:42:00,
2013-08-23 05:52:00,68.0,46.0,29.59,West,281,5.0,8.0,45,0.00,,,0.04,,2013-08-23 11:52:00,
2013-08-23 06:11:00,68.0,46.0,29.59,NW,310,5.0,7.0,45,0.00,,,0.04,,2013-08-23 12:11:00,
2013-08-23 06:22:00,68.0,46.0,29.59,WSW,238,2.0,7.0,45,0.00,,,0.04,,2013-08-23 12:22:00,
2013-08-23 06:42:00,69.0,46.0,29.59,WSW,254,6.0,8.0,44,0.00,,,0.04,,2013-08-23 12:42:00,
2013-08-23 06:52:00,68.0,45.0,29.58,NE,44,1.0,4.0,44,0.00,,,0.04,,2013-08-23 12:52:00,
2013-08-23 07:11:00,68.0,46.0,29.58,West,263,5.0,8.0,45,0.00,,,0.04,,2013-08-23 13:11:00,
2013-08-23 07:22:00,68.0,45.0,29.58,WSW,252,0.0,6.0,44,0.00,,,0.04,,2013-08-23 13:22:00,
2013-08-23 07:41:00,68.0,46.0,29.57,NE,53,7.0,10.0,46,0.00,,,0.04,,2013-08-23 13:41:00,
2013-08-23 07:52:00,70.0,45.0,29.57,SE,130,7.0,9.0,40,0.00,,,0.04,,2013-08-23 13:52:00,
2013-08-23 08:11:00,70.0,45.0,29.58,North,11,4.0,14.0,41,0.00,,,0.04,,2013-08-23 14:11:00,
2013-08-23 08:21:00,69.0,46.0,29.57,NNE,25,4.0,6.0,44,0.00,,,0.04,,2013-08-23 14:21:00,
2013-08-23 08:42:00,71.0,47.0,29.57,North,349,2.0,7.0,43,0.00,,,0.04,,2013-08-23 14:42:00,
2013-08-23 08:52:00,73.0,47.0,29.57,NE,41,2.0,3.0,40,0.00,,,0.04,,2013-08-23 14:52:00,
2013-08-23 09:11:00,74.0,47.0,29.57,NE,51,4.0,7.0,39,0.00,,,0.04,,2013-08-23 15:11:00,
2013-08-23 09:22:00,74.0,48.0,29.56,NE,45,9.0,11.0,40,0.00,,,0.04,,2013-08-23 15:22:00,
2013-08-23 09:43:00,74.0,49.0,29.56,NE,54,7.0,11.0,42,0.00,,,0.04,,2013-08-23 15:43:00,
2013-08-23 09:54:00,74.0,48.0,29.56,NNE,32,7.0,11.0,40,0.00,,,0.04,,2013-08-23 15:54:00,
2013-08-23 10:13:00,75.0,48.0,29.56,NE,36,5.0,9.0,39,0.00,,,0.04,,2013-08-23 16:13:00,
2013-08-23 10:24:00,77.0,46.0,29.55,ENE,72,4.0,9.0,34,0.00,,,0.04,,2013-08-23 16:24:00,
2013-08-23 10:42:00,78.0,46.0,29.56,ENE,59,3.0,8.0,32,0.00,,,0.04,,2013-08-23 16:42:00,
2013-08-23 10:53:00,79.0,47.0,29.55,NE,46,4.0,8.0,32,0.00,,,0.04,,2013-08-23 16:53:00,
2013-08-23 11:12:00,79.0,46.0,29.54,ENE,64,3.0,10.0,31,0.00,,,0.04,,2013-08-23 17:12:00,
2013-08-23 11:23:00,80.0,46.0,29.54,ENE,68,1.0,5.0,30,0.00,,,0.04,,2013-08-23 17:23:00,
2013-08-23 11:42:00,81.0,46.0,29.54,East,85,4.0,9.0,29,0.00,,,0.04,,2013-08-23 17:42:00,
2013-08-23 11:53:00,82.0,47.0,29.54,NNW,344,4.0,7.0,29,0.00,,,0.04,,2013-08-23 17:53:00,
2013-08-23 12:12:00,83.0,46.0,29.53,ESE,109,5.0,10.0,27,0.00,,,0.04,,2013-08-23 18:12:00,
2013-08-23 12:22:00,84.0,45.0,29.53,NE,55,4.0,6.0,26,0.00,,,0.04,,2013-08-23 18:22:00,
2013-08-23 12:42:00,84.0,45.0,29.52,NE,40,5.0,9.0,26,0.00,,,0.04,,2013-08-23 18:42:00,
2013-08-23 12:52:00,85.0,45.0,29.51,NNE,19,3.0,9.0,25,0.00,,,0.04,,2013-08-23 18:52:00,
2013-08-23 13:11:00,85.0,44.0,29.50,NNW,345,7.0,11.0,24,0.00,,,0.04,,2013-08-23 19:11:00,
2013-08-23 13:21:00,87.0,44.0,29.49,East,96,10.0,14.0,22,0.00,,,0.04,,2013-08-23 19:21:00,
2013-08-23 13:42:00,87.0,42.0,29.49,NNE,26,4.0,11.0,21,0.00,,,0.04,,2013-08-23 19:42:00,
2013-08-23 13:52:00,88.0,42.0,29.48,WNW,294,4.0,9.0,20,0.00,,,0.04,,2013-08-23 19:52:00,
2013-08-23 14:12:00,87.0,38.0,29.48,ESE,114,3.0,8.0,18,0.00,,,0.04,,2013-08-23 20:12:00,
2013-08-23 14:22:00,86.0,40.0,29.48,ENE,63,4.0,11.0,20,0.00,,,0.04,,2013-08-23 20:22:00,
2013-08-23 14:42:00,82.0,46.0,29.49,WNW,292,12.0,19.0,28,0.02,,,0.06,,2013-08-23 20:42:00,
2013-08-23 15:43:00,77.0,52.0,29.48,NNE,24,6.0,11.0,42,0.05,,,0.11,,2013-08-23 21:43:00,
2013-08-23 15:54:00,77.0,51.0,29.48,NE,44,1.0,2.0,40,0.04,,,0.11,,2013-08-23 21:54:00,
2013-08-23 16:13:00,79.0,50.0,29.48,SE,126,1.0,6.0,37,0.01,,,0.11,,2013-08-23 22:13:00,
2013-08-23 16:24:00,79.0,49.0,29.47,North,360,4.0,7.0,35,0.00,,,0.11,,2013-08-23 22:24:00,
2013-08-23 16:43:00,79.0,49.0,29.46,NNE,33,1.0,2.0,35,0.00,,,0.11,,2013-08-23 22:43:00,
2013-08-23 16:53:00,81.0,47.0,29.46,ENE,71,0.0,3.0,30,0.00,,,0.11,,2013-08-23 22:53:00,
2013-08-23 17:12:00,80.0,49.0,29.47,East,80,6.0,13.0,34,0.00,,,0.11,,2013-08-23 23:12:00,
2013-08-23 17:22:00,80.0,50.0,29.47,East,90,8.0,14.0,35,0.00,,,0.11,,2013-08-23 23:22:00,
2013-08-23 17:43:00,79.0,51.0,29.47,ENE,75,6.0,11.0,38,0.00,,,0.11,,2013-08-23 23:43:00,
2013-08-23 17:54:00,79.0,50.0,29.47,North,11,4.0,6.0,37,0.00,,,0.11,,2013-08-23 23:54:00,
2013-08-23 18:11:00,78.0,50.0,29.47,NNW,348,6.0,8.0,38,0.00,,,0.11,,2013-08-24 00:11:00,
2013-08-23 18:21:00,78.0,50.0,29.47,West,266,8.0,10.0,38,0.00,,,0.11,,2013-08-24 00:21:00,
2013-08-23 18:43:00,76.0,50.0,29.47,WSW,257,8.0,22.0,40,0.00,,,0.11,,2013-08-24 00:43:00,
2013-08-23 18:53:00,75.0,50.0,29.46,WSW,256,11.0,20.0,42,0.00,,,0.11,,2013-08-24 00:53:00,
2013-08-23 19:11:00,74.0,51.0,29.44,West,259,12.0,23.0,44,0.00,,,0.11,,2013-08-24 01:11:00,
2013-08-23 19:22:00,75.0,50.0,29.44,NW,319,7.0,16.0,42,0.00,,,0.11,,2013-08-24 01:22:00,
2013-08-23 19:42:00,75.0,47.0,29.44,West,280,5.0,7.0,37,0.00,,,0.07,,2013-08-24 01:42:00,
2013-08-23 19:53:00,75.0,48.0,29.44,West,270,4.0,7.0,38,0.00,,,0.07,,2013-08-24 01:53:00,
2013-08-23 20:11:00,75.0,48.0,29.45,WSW,239,4.0,6.0,39,0.00,,,0.07,,2013-08-24 02:11:00,
2013-08-23 20:22:00,74.0,47.0,29.45,SW,226,0.0,3.0,38,0.00,,,0.07,,2013-08-24 02:22:00,
2013-08-23 20:42:00,73.0,50.0,29.46,ENE,62,4.0,11.0,44,0.00,,,0.07,,2013-08-24 02:42:00,
2013-08-23 20:52:00,72.0,51.0,29.47,SE,134,0.0,3.0,47,0.00,,,0.07,,2013-08-24 02:52:00,
2013-08-23 21:11:00,71.0,49.0,29.47,SSE,154,2.0,4.0,46,0.00,,,0.07,,2013-08-24 03:11:00,
2013-08-23 21:22:00,72.0,49.0,29.49,South,184,7.0,11.0,45,0.00,,,0.07,,2013-08-24 03:22:00,
2013-08-23 21:44:00,72.0,49.0,29.50,SE,129,7.0,9.0,44,0.00,,,0.07,,2013-08-24 03:44:00,
2013-08-23 21:54:00,71.0,49.0,29.51,SE,145,8.0,13.0,45,0.00,,,0.07,,2013-08-24 03:54:00,
2013-08-23 22:14:00,70.0,48.0,29.51,South,181,9.0,12.0,46,0.00,,,0.07,,2013-08-24 04:14:00,
2013-08-23 22:24:00,70.0,48.0,29.51,South,172,11.0,17.0,45,0.00,,,0.07,,2013-08-24 04:24:00,
2013-08-23 22:44:00,69.0,48.0,29.51,SSE,148,9.0,13.0,47,0.00,,,0.07,,2013-08-24 04:44:00,
2013-08-23 22:53:00,68.0,47.0,29.52,SE,129,7.0,14.0,47,0.00,,,0.07,,2013-08-24 04:53:00,
2013-08-23 23:12:00,68.0,48.0,29.53,SE,128,6.0,14.0,48,0.00,,,0.07,,2013-08-24 05:12:00,
2013-08-23 23:23:00,68.0,49.0,29.53,SE,128,4.0,13.0,50,0.00,,,0.07,,2013-08-24 05:23:00,
2013-08-23 23:43:00,67.0,49.0,29.52,SSE,148,3.0,7.0,52,0.00,,,0.07,,2013-08-24 05:43:00,
2013-08-23 23:53:00,67.0,48.0,29.52,South,175,6.0,9.0,51,0.00,,,0.07,,2013-08-24 05:53:00,